createdAt,value
2018-10-21T12:14:16.599Z,66.00
2018-10-21T12:15:16.596Z,64.12
2018-10-21T12:16:16.593Z,64.05
2018-10-21T12:17:16.534Z,62.41
2018-10-21T12:18:16.493Z,62.51
2018-10-21T12:19:16.535Z,61.87
2018-10-21T12:20:16.460Z,62.83
2018-10-21T12:21:16.441Z,62.06
2018-10-21T12:22:16.569Z,59.69
2018-10-21T12:23:25.833Z,58.97
2018-10-21T12:24:16.389Z,58.11
2018-10-21T12:25:16.440Z,57.94
2018-10-21T12:26:16.357Z,58.94
2018-10-21T12:27:16.340Z,56.14
2018-10-21T12:28:16.413Z,56.33
2018-10-21T12:29:16.374Z,55.59
2018-10-21T12:30:16.296Z,55.10
2018-10-21T12:31:16.329Z,53.81
2018-10-21T12:32:16.264Z,54.17
2018-10-21T12:33:16.261Z,53.88
2018-10-21T12:34:16.292Z,55.92
2018-10-21T12:35:16.286Z,56.57
2018-10-21T12:36:16.196Z,57.92
2018-10-21T12:37:16.328Z,57.07
2018-10-21T12:38:16.179Z,56.04
2018-10-21T12:39:16.156Z,54.86
2018-10-21T12:40:16.165Z,55.76
2018-10-21T12:41:16.132Z,56.07
2018-10-21T12:42:16.110Z,54.91
2018-10-21T12:43:16.169Z,55.31
2018-10-21T12:44:16.076Z,57.05
2018-10-21T12:45:16.065Z,56.85
2018-10-21T12:46:16.127Z,56.80
2018-10-21T12:47:16.100Z,57.02
2018-10-21T12:48:16.038Z,56.09
2018-10-21T12:49:16.076Z,56.66
2018-10-21T12:50:16.003Z,56.09
2018-10-21T12:51:15.973Z,56.85
2018-10-21T12:52:15.971Z,55.82
2018-10-21T12:53:16.070Z,55.99
2018-10-21T12:54:16.072Z,55.49
2018-10-21T12:55:16.034Z,53.75
2018-10-21T12:56:15.901Z,54.07
2018-10-21T12:57:15.887Z,52.81
2018-10-21T12:58:16.009Z,52.98
2018-10-21T12:59:15.859Z,54.43
2018-10-21T13:00:15.845Z,54.40
2018-10-21T13:01:15.911Z,54.69
2018-10-21T13:02:15.913Z,53.89
2018-10-21T13:03:15.818Z,55.31
2018-10-21T13:04:15.837Z,54.64
2018-10-21T13:05:15.770Z,54.57
2018-10-21T13:06:15.761Z,54.05
2018-10-21T13:07:15.822Z,53.17
2018-10-21T13:08:15.749Z,54.10
2018-10-21T13:09:15.722Z,51.81
2018-10-21T13:10:15.797Z,50.16
2018-10-21T13:11:15.692Z,50.98
2018-10-21T13:12:15.689Z,52.33
2018-10-21T13:13:15.733Z,51.44
2018-10-21T13:14:15.652Z,51.95
2018-10-21T13:15:15.652Z,52.07
2018-10-21T13:16:15.643Z,51.68
2018-10-21T13:17:15.623Z,50.79
2018-10-21T13:18:15.621Z,51.15
2018-10-21T13:19:15.634Z,52.79
2018-10-21T13:20:15.573Z,52.86
2018-10-21T13:21:15.563Z,55.01
2018-10-21T13:22:15.641Z,55.08
2018-10-21T13:23:15.549Z,53.25
2018-10-21T13:24:15.525Z,52.37
2018-10-21T13:25:15.591Z,52.67
2018-10-21T13:26:15.499Z,51.46
2018-10-21T13:27:15.486Z,52.30
2018-10-21T13:28:15.543Z,52.20
2018-10-21T13:29:15.457Z,52.13
2018-10-21T13:30:15.452Z,52.35
2018-10-21T13:31:15.542Z,52.13
2018-10-21T13:32:15.411Z,52.25
2018-10-21T13:33:15.420Z,51.75
2018-10-21T13:34:15.462Z,51.70
2018-10-21T13:35:15.377Z,53.33
2018-10-21T13:36:15.364Z,52.95
2018-10-21T13:37:15.445Z,52.66
2018-10-21T13:38:15.358Z,52.85
2018-10-21T13:39:15.325Z,53.02
2018-10-21T13:40:15.434Z,53.72
2018-10-21T13:41:15.295Z,53.81
2018-10-21T13:42:15.280Z,54.30
2018-10-21T13:43:15.312Z,53.88
2018-10-21T13:44:15.269Z,55.13
2018-10-21T13:45:15.242Z,56.29
2018-10-21T13:46:15.241Z,54.82
2018-10-21T13:47:15.216Z,56.00
2018-10-21T13:48:15.208Z,53.88
2018-10-21T13:49:15.296Z,54.56
2018-10-21T13:50:15.174Z,53.02
2018-10-21T13:51:15.163Z,53.33
2018-10-21T13:52:15.332Z,53.55
2018-10-21T13:53:15.209Z,52.49
2018-10-21T13:54:15.173Z,52.87
2018-10-21T13:55:15.179Z,52.75
2018-10-21T13:56:15.135Z,52.59
2018-10-21T13:57:15.110Z,52.49
2018-10-21T13:58:15.116Z,52.20
2018-10-21T13:59:15.174Z,52.20
2018-10-21T14:00:15.069Z,50.66
2018-10-21T14:01:15.091Z,50.85
2018-10-21T14:02:15.028Z,51.68
2018-10-21T14:03:15.016Z,50.35
2018-10-21T14:04:15.094Z,50.30
2018-10-21T14:05:15.038Z,51.89
2018-10-21T14:06:14.984Z,53.31
2018-10-21T14:07:15.012Z,54.82
2018-10-21T14:08:14.957Z,55.37
2018-10-21T14:09:14.944Z,55.76
2018-10-21T14:10:15.004Z,55.82
2018-10-21T14:11:14.971Z,56.30
2018-10-21T14:12:14.917Z,57.33
2018-10-21T14:13:14.902Z,57.71
2018-10-21T14:14:14.892Z,58.00
2018-10-21T14:15:14.945Z,58.48
2018-10-21T14:16:14.923Z,59.54
2018-10-21T14:17:14.845Z,57.88
2018-10-21T14:18:14.834Z,58.17
2018-10-21T14:19:14.823Z,58.74
2018-10-21T14:20:14.817Z,59.12
2018-10-21T14:21:14.830Z,59.22
2018-10-21T14:22:14.866Z,59.99
2018-10-21T14:23:14.765Z,59.61
2018-10-21T14:24:14.831Z,60.08
2018-10-21T14:25:14.739Z,60.66
2018-10-21T14:26:14.760Z,60.28
2018-10-21T14:27:14.717Z,60.57
2018-10-21T14:28:14.700Z,60.38
2018-10-21T14:29:14.684Z,60.15
2018-10-21T14:30:14.736Z,59.29
2018-10-21T14:31:14.656Z,60.05
2018-10-21T14:32:14.657Z,59.96
2018-10-21T14:33:14.657Z,60.35
2018-10-21T14:34:14.614Z,61.30
2018-10-21T14:35:14.599Z,61.30
2018-10-21T14:36:14.593Z,60.50
2018-10-21T14:37:14.583Z,60.70
2018-10-21T14:38:14.557Z,61.18
2018-10-21T14:39:14.638Z,61.27
2018-10-21T14:40:14.529Z,60.60
2018-10-21T14:41:14.514Z,61.46
2018-10-21T14:42:14.587Z,61.46
2018-10-21T14:43:14.484Z,61.94
2018-10-21T14:44:14.466Z,61.27
2018-10-21T14:45:14.576Z,62.13
2018-10-21T14:46:14.438Z,62.04
2018-10-21T14:47:14.427Z,62.13
2018-10-21T14:48:14.503Z,62.52
2018-10-21T14:49:14.391Z,62.23
2018-10-21T14:50:14.392Z,62.13
2018-10-21T14:51:14.423Z,62.23
2018-10-21T14:52:14.347Z,62.33
2018-10-21T14:53:14.822Z,62.49
2018-10-21T14:54:14.329Z,63.09
2018-10-21T14:55:14.350Z,63.45
2018-10-21T14:56:14.324Z,62.90
2018-10-21T14:57:14.318Z,63.16
2018-10-21T14:58:14.308Z,63.83
2018-10-21T14:59:14.241Z,64.22
2018-10-21T15:00:14.307Z,64.12
2018-10-21T15:01:14.212Z,63.92
2018-10-21T15:02:14.274Z,63.83
2018-10-21T15:03:14.184Z,64.31
2018-10-21T15:04:14.262Z,64.50
2018-10-21T15:05:14.151Z,64.59
2018-10-21T15:06:14.184Z,64.02
2018-10-21T15:07:14.117Z,63.83
2018-10-21T15:08:14.155Z,64.31
2018-10-21T15:09:14.117Z,64.69
2018-10-21T15:10:14.174Z,65.26
2018-10-21T15:11:14.056Z,65.71
2018-10-21T15:12:14.099Z,64.95
2018-10-21T15:13:14.026Z,65.05
2018-10-21T15:14:14.218Z,65.05
2018-10-21T15:15:14.001Z,64.85
2018-10-21T15:16:14.135Z,65.14
2018-10-21T15:17:13.964Z,64.85
2018-10-21T15:18:14.027Z,65.91
2018-10-21T15:19:13.931Z,66.00
2018-10-21T15:20:13.974Z,65.81
2018-10-21T15:21:13.908Z,66.09
2018-10-21T15:22:13.955Z,66.09
2018-10-21T15:23:13.900Z,65.52
2018-10-21T15:24:13.850Z,65.42
2018-10-21T15:25:13.849Z,65.81
2018-10-21T15:26:13.916Z,66.00
2018-10-21T15:27:13.805Z,65.42
2018-10-21T15:28:13.841Z,66.58
2018-10-21T15:29:13.838Z,66.58
2018-10-21T15:30:13.781Z,66.48
2018-10-21T15:31:13.742Z,67.05
2018-10-21T15:32:13.791Z,66.77
2018-10-21T15:33:13.712Z,67.63
2018-10-21T15:34:13.705Z,67.72
2018-10-21T15:35:13.694Z,68.01
2018-10-21T15:36:13.666Z,67.25
2018-10-21T15:37:13.647Z,67.15
2018-10-21T15:38:13.686Z,67.72
2018-10-21T15:39:13.613Z,68.17
2018-10-21T15:40:13.698Z,68.46
2018-10-21T15:41:13.582Z,67.69
2018-10-21T15:42:13.564Z,68.27
2018-10-21T15:43:13.554Z,68.27
2018-10-21T15:44:13.591Z,68.74
2018-10-21T15:45:13.529Z,69.23
2018-10-21T15:46:13.544Z,68.55
2018-10-21T15:47:13.485Z,68.84
2018-10-21T15:48:13.464Z,68.74
2018-10-21T15:49:13.465Z,68.94
2018-10-21T15:50:13.511Z,68.65
2018-10-21T15:51:13.422Z,68.94
2018-10-21T15:52:13.453Z,68.94
2018-10-21T15:53:13.389Z,68.84
2018-10-21T15:54:13.369Z,68.84
2018-10-21T15:55:13.352Z,69.86
2018-10-21T15:56:13.407Z,69.48
2018-10-21T15:57:13.324Z,70.43
2018-10-21T15:58:13.374Z,70.05
2018-10-21T15:59:13.285Z,70.43
2018-10-21T16:00:13.271Z,70.43
2018-10-21T16:01:13.273Z,70.15
2018-10-21T16:02:13.310Z,70.15
2018-10-21T16:03:13.222Z,70.62
2018-10-21T16:04:13.335Z,70.91
2018-10-21T16:05:13.188Z,70.34
2018-10-21T16:06:13.175Z,71.16
2018-10-21T16:07:13.189Z,71.30
2018-10-21T16:08:13.227Z,71.07
2018-10-21T16:09:13.121Z,71.16
2018-10-21T16:10:13.138Z,71.83
2018-10-21T16:11:13.093Z,71.83
2018-10-21T16:12:13.086Z,72.88
2018-10-21T16:13:13.134Z,73.23
2018-10-21T16:14:13.180Z,73.61
2018-10-21T16:15:13.020Z,73.71
2018-10-21T16:16:13.074Z,74.66
2018-10-21T16:17:13.069Z,74.85
2018-10-21T16:18:12.978Z,75.71
2018-10-21T16:19:12.972Z,76.96
2018-10-21T16:20:13.042Z,76.96
2018-10-21T16:21:12.923Z,77.97
2018-10-21T16:22:13.014Z,78.16
2018-10-21T16:23:12.887Z,78.16
2018-10-21T16:24:12.883Z,79.02
2018-10-21T16:25:12.851Z,79.22
2018-10-21T16:26:12.886Z,79.02
2018-10-21T16:27:12.826Z,79.50
2018-10-21T16:28:12.846Z,80.65
2018-10-21T16:29:12.785Z,80.70
2018-10-21T16:30:12.769Z,80.74
2018-10-21T16:31:12.756Z,80.46
2018-10-21T16:32:12.778Z,80.93
2018-10-21T16:33:12.717Z,80.17
2018-10-21T16:34:12.733Z,80.32
2018-10-21T16:35:12.689Z,80.46
2018-10-21T16:36:12.664Z,80.17
2018-10-21T16:37:12.705Z,80.17
2018-10-21T16:38:12.685Z,80.17
2018-10-21T16:39:12.749Z,80.36
2018-10-21T16:40:12.598Z,80.55
2018-10-21T16:41:12.577Z,80.51
2018-10-21T16:42:12.571Z,81.56
2018-10-21T16:43:12.544Z,81.47
2018-10-21T16:44:12.524Z,81.95
2018-10-21T16:45:12.554Z,82.32
2018-10-21T16:46:12.491Z,82.90
2018-10-21T16:47:12.490Z,83.57
2018-10-21T16:48:12.506Z,83.81
2018-10-21T16:49:12.436Z,83.81
2018-10-21T16:50:12.419Z,84.00
2018-10-21T16:51:12.416Z,85.44
2018-10-21T16:52:12.385Z,85.25
2018-10-21T16:53:12.440Z,85.53
2018-10-21T16:54:12.390Z,85.63
2018-10-21T16:55:12.333Z,85.72
2018-10-21T16:56:12.312Z,85.68
2018-10-21T16:57:12.392Z,85.72
2018-10-21T16:58:12.277Z,85.91
2018-10-21T16:59:12.340Z,86.10
2018-10-21T17:00:12.316Z,85.87
2018-10-21T17:01:12.298Z,86.06
2018-10-21T17:02:12.228Z,85.87
2018-10-21T17:03:12.216Z,85.58
2018-10-21T17:04:12.167Z,86.35
2018-10-21T17:05:12.227Z,86.35
2018-10-21T17:06:12.133Z,86.35
2018-10-21T17:07:12.193Z,86.06
2018-10-21T17:08:12.110Z,86.25
2018-10-21T17:09:12.148Z,86.63
2018-10-21T17:10:12.427Z,86.35
2018-10-21T17:11:12.148Z,86.73
2018-10-21T17:12:12.105Z,86.73
2018-10-21T17:13:12.035Z,87.21
2018-10-21T17:14:12.022Z,86.54
2018-10-21T17:15:11.970Z,87.40
2018-10-21T17:16:12.022Z,87.21
2018-10-21T17:17:11.988Z,87.02
2018-10-21T17:18:11.930Z,87.78
2018-10-21T17:19:11.970Z,88.12
2018-10-21T17:20:11.886Z,88.98
2018-10-21T17:21:11.865Z,89.26
2018-10-21T17:22:11.918Z,90.03
2018-10-21T17:23:11.823Z,90.12
2018-10-21T17:24:11.812Z,90.50
2018-10-21T17:25:11.893Z,91.17
2018-10-21T17:26:11.768Z,91.83
2018-10-21T17:27:11.755Z,91.93
2018-10-21T17:28:11.855Z,92.36
2018-10-21T17:29:11.715Z,92.55
2018-10-21T17:30:11.695Z,92.46
2018-10-21T17:31:11.755Z,93.22
2018-10-21T17:32:11.678Z,93.32
2018-10-21T17:33:11.642Z,93.60
2018-10-21T17:34:11.672Z,94.17
2018-10-21T17:35:11.601Z,94.46
2018-10-21T17:36:11.584Z,94.56
2018-10-21T17:37:11.658Z,94.27
2018-10-21T17:38:11.546Z,94.27
2018-10-21T17:39:11.529Z,93.22
2018-10-21T17:40:11.545Z,93.60
2018-10-21T17:41:11.495Z,93.51
2018-10-21T17:42:11.489Z,94.74
2018-10-21T17:43:11.526Z,93.98
2018-10-21T17:44:11.434Z,94.65
2018-10-21T17:45:11.414Z,95.12
2018-10-21T17:46:11.502Z,95.51
2018-10-21T17:47:11.401Z,95.79
2018-10-21T17:48:11.355Z,96.27
2018-10-21T17:49:11.375Z,96.27
2018-10-21T17:50:11.323Z,96.32
2018-10-21T17:51:11.302Z,96.70
2018-10-21T17:52:11.370Z,96.51
2018-10-21T17:53:11.278Z,98.03
2018-10-21T17:54:11.243Z,97.75
2018-10-21T17:55:11.298Z,97.75
2018-10-21T17:56:11.210Z,98.22
2018-10-21T17:57:11.220Z,99.08
2018-10-21T17:58:11.263Z,99.08
2018-10-21T17:59:11.148Z,99.37
2018-10-21T18:00:11.125Z,99.65
2018-10-21T18:01:11.175Z,99.99
2018-10-21T18:02:11.097Z,98.99
2018-10-21T18:03:11.084Z,99.84
2018-10-21T18:04:11.139Z,99.99
2018-10-21T18:05:11.028Z,99.46
2018-10-21T18:06:11.018Z,99.55
2018-10-21T18:07:11.073Z,99.99
2018-10-21T18:08:11.009Z,99.99
2018-10-21T18:09:10.951Z,99.99
2018-10-21T18:10:10.968Z,99.99
2018-10-21T18:11:10.936Z,99.99
2018-10-21T18:12:10.899Z,99.99
2018-10-21T18:13:10.928Z,99.99
2018-10-21T18:14:10.859Z,99.99
2018-10-21T18:15:10.843Z,99.99
2018-10-21T18:16:11.847Z,99.99
2018-10-21T18:17:10.801Z,99.99
2018-10-21T18:18:10.782Z,99.99
2018-10-21T18:19:10.871Z,99.99
2018-10-21T18:20:10.743Z,99.99
2018-10-21T18:21:10.725Z,99.99
2018-10-21T18:22:10.809Z,99.99
2018-10-21T18:23:10.684Z,99.99
2018-10-21T18:24:19.371Z,99.99
2018-10-21T18:25:10.714Z,99.99
2018-10-21T18:26:10.715Z,99.99
2018-10-21T18:27:10.665Z,99.99
2018-10-21T18:28:10.661Z,99.99
2018-10-21T18:29:10.567Z,99.99
2018-10-21T18:30:10.567Z,99.99
2018-10-21T18:31:10.955Z,99.99
2018-10-21T18:32:10.511Z,99.99
2018-10-21T18:33:10.577Z,99.99
2018-10-21T18:34:10.556Z,99.99
2018-10-21T18:35:10.463Z,99.99
2018-10-21T18:36:10.430Z,99.99
2018-10-21T18:37:10.468Z,99.99
2018-10-21T18:38:10.390Z,99.99
2018-10-21T18:39:10.373Z,99.99
2018-10-21T18:40:10.522Z,99.99
2018-10-21T18:41:10.562Z,99.99
2018-10-21T18:42:10.313Z,99.99
2018-10-21T18:43:10.359Z,99.99
2018-10-21T18:44:10.268Z,99.99
2018-10-21T18:45:10.250Z,99.99
2018-10-21T18:46:10.451Z,99.99
2018-10-21T18:47:10.214Z,99.99
2018-10-21T18:48:10.214Z,99.99
2018-10-21T18:49:10.240Z,99.99
2018-10-21T18:50:10.158Z,99.99
2018-10-21T18:51:10.168Z,99.99
2018-10-21T18:52:10.167Z,99.99
2018-10-21T18:53:10.095Z,99.99
2018-10-21T18:54:10.071Z,99.99
2018-10-21T18:55:10.156Z,99.99
2018-10-21T18:56:10.034Z,99.99
2018-10-21T18:57:10.015Z,99.99
2018-10-21T18:58:10.005Z,99.99
2018-10-21T18:59:09.975Z,99.99
2018-10-21T19:00:09.989Z,99.99
2018-10-21T19:01:10.009Z,99.99
2018-10-21T19:02:09.929Z,99.99
2018-10-21T19:03:09.893Z,99.99
2018-10-21T19:04:09.912Z,99.99
2018-10-21T19:05:09.897Z,99.99
2018-10-21T19:06:09.831Z,99.99
2018-10-21T19:07:09.959Z,99.99
2018-10-21T19:08:09.793Z,99.99
2018-10-21T19:09:09.771Z,99.99
2018-10-21T19:10:09.930Z,99.99
2018-10-21T19:11:09.864Z,99.99
2018-10-21T19:12:09.737Z,99.99
2018-10-21T19:13:09.785Z,99.99
2018-10-21T19:14:09.726Z,99.99
2018-10-21T19:15:09.722Z,99.99
2018-10-21T19:16:09.677Z,99.99
2018-10-21T19:17:09.634Z,99.99
2018-10-21T19:18:09.599Z,99.99
2018-10-21T19:19:09.759Z,99.99
2018-10-21T19:20:09.585Z,99.99
2018-10-21T19:21:09.565Z,99.99
2018-10-21T19:22:09.620Z,99.99
2018-10-21T19:23:09.517Z,99.99
2018-10-21T19:24:09.489Z,99.99
2018-10-21T19:25:09.543Z,99.99
2018-10-21T19:26:09.441Z,99.99
2018-10-21T19:27:09.502Z,99.99
2018-10-21T19:28:09.548Z,99.99
2018-10-21T19:29:09.385Z,99.99
2018-10-21T19:30:09.380Z,99.99
2018-10-21T19:31:09.433Z,99.99
2018-10-21T19:32:09.350Z,99.99
2018-10-21T19:33:09.313Z,99.99
2018-10-21T19:34:09.305Z,99.99
2018-10-21T19:35:09.261Z,99.99
2018-10-21T19:36:09.274Z,99.99
2018-10-21T19:37:09.263Z,99.99
2018-10-21T19:38:09.206Z,99.99
2018-10-21T19:39:09.195Z,99.99
2018-10-21T19:40:09.219Z,99.99
2018-10-21T19:41:09.125Z,99.99
2018-10-21T19:42:09.141Z,99.99
2018-10-21T19:43:09.212Z,99.99
2018-10-21T19:44:09.081Z,99.99
2018-10-21T19:45:09.092Z,99.99
2018-10-21T19:46:09.089Z,99.99
2018-10-21T19:47:09.032Z,99.99
2018-10-21T19:48:09.030Z,99.99
2018-10-21T19:49:09.043Z,99.99
2018-10-21T19:50:08.947Z,99.99
2018-10-21T19:51:08.932Z,99.99
2018-10-21T19:52:08.970Z,99.99
2018-10-21T19:53:08.939Z,99.99
2018-10-21T19:54:08.882Z,99.99
2018-10-21T19:55:08.921Z,99.99
2018-10-21T19:56:08.889Z,99.99
2018-10-21T19:57:08.811Z,99.99
2018-10-21T19:58:08.825Z,99.99
2018-10-21T19:59:08.812Z,99.99
2018-10-21T20:00:08.773Z,99.99
2018-10-21T20:01:08.805Z,99.99
2018-10-21T20:02:08.776Z,99.99
2018-10-21T20:03:08.694Z,99.99
2018-10-21T20:04:08.762Z,99.99
2018-10-21T20:05:08.653Z,99.99
2018-10-21T20:06:08.633Z,99.99
2018-10-21T20:07:08.649Z,99.99
2018-10-21T20:08:08.636Z,99.99
2018-10-21T20:09:08.564Z,99.99
2018-10-21T20:10:08.598Z,99.99
2018-10-21T20:11:08.533Z,99.99
2018-10-21T20:12:08.518Z,99.99
2018-10-21T20:13:08.511Z,99.99
2018-10-21T20:14:08.450Z,99.99
2018-10-21T20:15:08.493Z,99.99
2018-10-21T20:16:08.494Z,99.99
2018-10-21T20:17:08.422Z,99.99
2018-10-21T20:18:08.431Z,99.99
